createdAt,value
2019-04-01T00:15:49.262Z,61.2
2019-04-01T00:32:23.019Z,61.2
2019-04-01T00:48:56.689Z,61.6
2019-04-01T01:05:30.306Z,61.6
2019-04-01T01:22:03.889Z,62.0
2019-04-01T01:38:37.317Z,62.0
2019-04-01T01:55:10.776Z,62.4
2019-04-01T02:11:44.134Z,62.4
2019-04-01T02:28:17.485Z,62.4
2019-04-01T02:44:50.747Z,62.4
2019-04-01T03:01:24.076Z,63.2
2019-04-01T03:17:57.212Z,62.8
2019-04-01T03:34:30.209Z,63.6
2019-04-01T03:51:03.123Z,63.6
2019-04-01T04:07:36.033Z,64.0
2019-04-01T04:24:08.965Z,64.0
2019-04-01T04:40:41.918Z,64.8
2019-04-01T04:57:14.797Z,64.4
2019-04-01T05:13:47.602Z,64.4
2019-04-01T05:30:20.519Z,64.8
2019-04-01T05:46:53.574Z,64.8
2019-04-01T06:03:26.745Z,64.0
2019-04-01T06:20:00.401Z,63.6
2019-04-01T06:36:34.382Z,62.4
2019-04-01T06:46:30.449Z,62.0
2019-04-01T06:59:47.049Z,60.0
2019-04-01T07:13:02.605Z,59.2
2019-04-01T07:29:37.999Z,58.4
2019-04-01T07:42:54.555Z,55.2
2019-04-01T17:26:29.696Z,41.6
2019-04-01T17:43:13.365Z,42.4
2019-04-01T17:59:52.201Z,43.2
2019-04-01T18:16:33.890Z,44.0
2019-04-01T18:33:10.320Z,44.8
2019-04-01T18:49:50.359Z,44.8
2019-04-01T19:06:29.310Z,45.2
2019-04-01T19:23:08.252Z,45.6
2019-04-01T19:39:47.118Z,46.0
2019-04-01T19:56:25.833Z,46.8
2019-04-01T20:13:04.257Z,47.2
2019-04-01T20:29:42.591Z,47.6
2019-04-01T20:46:20.723Z,48.4
2019-04-01T21:02:58.779Z,48.8
2019-04-01T21:19:36.710Z,48.8
2019-04-01T21:36:16.005Z,49.6
2019-04-01T21:52:52.255Z,50.0
2019-04-01T22:09:29.747Z,50.4
2019-04-01T22:26:07.107Z,51.2
2019-04-01T22:42:43.950Z,52.0
2019-04-01T22:59:20.637Z,52.4
2019-04-01T23:15:57.028Z,52.8
2019-04-01T23:32:33.396Z,53.2
2019-04-01T23:49:11.040Z,54.0
